Time;durP1;ratioP1;P1;durP2;ratioP2;P2;SDS_P1;SDS_P2;PMS_P1;PMS_P2;Temp;Humidity;BMP_temperature;BMP_pressure;BME280_temperature;BME280_humidity;BME280_pressure;Samples;Min_cycle;Max_cycle;Signal;HPM_P1;HPM_P2
2022/05/25 00:01:26;;;;;;;7.15;6.60;;;15.70;68.50;;;;;;5027384;28;20036;-78
2022/05/25 00:03:52;;;;;;;7.30;6.57;;;15.70;68.70;;;;;;5027912;28;20033;-78
2022/05/25 00:06:18;;;;;;;7.03;6.53;;;15.70;68.50;;;;;;5030442;28;20048;-78
2022/05/25 00:08:44;;;;;;;7.35;6.50;;;15.60;68.60;;;;;;5020728;28;20053;-78
2022/05/25 00:11:10;;;;;;;6.90;6.40;;;15.60;68.60;;;;;;5021793;28;20056;-78
2022/05/25 00:13:37;;;;;;;6.95;6.53;;;15.60;68.80;;;;;;5025813;28;20022;-78
2022/05/25 00:16:04;;;;;;;6.93;6.43;;;15.60;68.80;;;;;;5010568;28;20029;-78
2022/05/25 00:18:30;;;;;;;6.60;6.18;;;15.50;69.30;;;;;;5029732;28;20029;-78
2022/05/25 00:20:56;;;;;;;6.50;6.10;;;15.60;69.50;;;;;;5028117;28;20521;-78
2022/05/25 00:23:23;;;;;;;9.00;6.68;;;15.60;69.50;;;;;;5027225;28;20029;-78
2022/05/25 00:25:49;;;;;;;6.88;6.43;;;15.60;69.60;;;;;;5026912;28;20029;-78
2022/05/25 00:28:16;;;;;;;6.70;6.10;;;15.50;69.80;;;;;;5027021;28;20041;-78
2022/05/25 00:30:44;;;;;;;6.68;6.20;;;15.50;70.10;;;;;;5026273;28;20038;-78
2022/05/25 00:33:10;;;;;;;6.63;6.18;;;15.50;69.50;;;;;;5027892;28;20038;-78
2022/05/25 00:35:36;;;;;;;6.70;6.20;;;15.40;69.60;;;;;;5026770;28;20039;-78
2022/05/25 00:38:03;;;;;;;7.05;6.55;;;15.40;69.80;;;;;;5026974;28;20480;-78
2022/05/25 00:40:40;;;;;;;6.72;6.15;;;15.40;69.60;;;;;;5028516;28;20483;-78
2022/05/25 00:43:06;;;;;;;7.80;6.50;;;15.40;69.60;;;;;;5026801;28;20046;-78
2022/05/25 00:45:38;;;;;;;6.78;6.28;;;15.30;69.50;;;;;;5028670;28;20029;-78
2022/05/25 00:48:06;;;;;;;6.70;6.28;;;15.20;69.60;;;;;;5026755;28;20426;-78
2022/05/25 00:51:12;;;;;;;6.70;6.22;;;15.30;69.80;;;;;;5009288;28;20423;-78
2022/05/25 00:53:18;;;;;;;7.00;6.50;;;15.20;70.70;;;;;;5025720;28;20030;-78
2022/05/25 00:55:44;;;;;;;6.90;6.13;;;15.20;70.30;;;;;;5009197;28;20036;-78
2022/05/25 00:58:10;;;;;;;7.45;6.75;;;15.10;70.90;;;;;;5027052;28;20041;-78
2022/05/25 01:00:37;;;;;;;6.53;6.03;;;15.00;71.10;;;;;;5027427;28;20475;-78
2022/05/25 01:03:11;;;;;;;8.95;6.38;;;15.10;70.50;;;;;;5027957;28;20032;-78
2022/05/25 01:06:03;;;;;;;7.60;6.43;;;15.10;70.50;;;;;;5027569;28;20037;-78
2022/05/25 01:08:36;;;;;;;6.55;6.15;;;15.10;70.50;;;;;;5022083;28;20034;-78
2022/05/25 01:11:18;;;;;;;6.95;6.40;;;15.10;70.60;;;;;;5018658;28;20041;-78
2022/05/25 01:13:47;;;;;;;8.38;6.47;;;15.10;70.50;;;;;;5025372;28;20029;-78
2022/05/25 01:16:23;;;;;;;7.53;6.18;;;15.10;70.40;;;;;;5008493;28;20037;-78
2022/05/25 01:19:08;;;;;;;8.55;6.18;;;15.10;70.50;;;;;;5027388;28;20041;-78
2022/05/25 01:22:00;;;;;;;6.72;6.22;;;15.10;70.50;;;;;;5039630;28;20030;-78
2022/05/25 01:24:29;;;;;;;7.43;6.72;;;15.00;71.00;;;;;;5026499;28;20036;-77
2022/05/25 01:27:36;;;;;;;7.30;6.50;;;15.00;70.80;;;;;;5030714;28;20044;-78
2022/05/25 01:30:12;;;;;;;7.20;6.60;;;14.90;71.10;;;;;;4995171;28;20046;-77
2022/05/25 01:33:14;;;;;;;7.45;6.85;;;14.90;71.20;;;;;;5007242;28;20042;-78
2022/05/25 01:36:09;;;;;;;7.47;6.65;;;14.90;71.10;;;;;;4994835;28;20042;-78
2022/05/25 01:38:46;;;;;;;7.25;6.68;;;14.90;70.80;;;;;;5004817;28;20041;-77
2022/05/25 01:41:20;;;;;;;6.72;6.13;;;14.90;70.80;;;;;;4989469;28;20154;-78
2022/05/25 01:44:01;;;;;;;7.10;6.40;;;14.90;70.90;;;;;;4990368;28;20042;-78
2022/05/25 01:46:31;;;;;;;9.32;7.10;;;14.80;70.70;;;;;;4989607;28;20373;-78
2022/05/25 01:48:57;;;;;;;8.02;7.30;;;14.90;70.90;;;;;;5006782;28;20039;-78
2022/05/25 01:51:30;;;;;;;7.00;6.45;;;14.90;71.10;;;;;;4991690;28;20053;-78
2022/05/25 01:53:58;;;;;;;7.50;6.88;;;14.80;70.60;;;;;;5007080;28;20515;-78
2022/05/25 01:56:25;;;;;;;7.00;6.40;;;14.80;70.60;;;;;;4990512;28;20034;-78
2022/05/25 01:58:56;;;;;;;6.93;6.43;;;14.80;71.00;;;;;;5006017;28;20489;-78
2022/05/25 02:01:22;;;;;;;8.25;7.15;;;14.80;71.00;;;;;;4979231;28;20035;-78
2022/05/25 02:06:57;;;;;;;7.38;6.88;;;14.80;71.00;;;;;;4987059;28;20388;-78
2022/05/25 02:09:45;;;;;;;7.50;6.80;;;14.80;70.90;;;;;;4999694;28;20504;-78
2022/05/25 02:12:20;;;;;;;7.78;6.93;;;14.70;70.70;;;;;;5007121;28;20053;-78
2022/05/25 02:15:27;;;;;;;7.38;6.88;;;14.70;70.90;;;;;;5007621;28;20046;-77
2022/05/25 02:17:56;;;;;;;8.38;6.80;;;14.60;70.50;;;;;;4965692;28;20043;-78
2022/05/25 02:20:31;;;;;;;8.25;7.05;;;14.50;70.80;;;;;;4964116;28;20057;-78
2022/05/25 02:23:04;;;;;;;7.65;6.95;;;14.50;71.00;;;;;;4950516;28;20027;-78
2022/05/25 02:25:33;;;;;;;7.93;7.13;;;14.50;71.00;;;;;;4936938;28;20036;-78
2022/05/25 02:28:20;;;;;;;7.97;7.38;;;14.50;71.10;;;;;;4967905;28;20528;-78
2022/05/25 02:30:51;;;;;;;7.53;6.80;;;14.50;71.00;;;;;;4952193;28;20513;-78
2022/05/25 02:33:20;;;;;;;;;;;14.40;71.10;;;;;;4954974;28;20082;-78
2022/05/25 02:35:46;;;;;;;7.03;6.63;;;14.40;71.20;;;;;;4949933;28;19918;-78
2022/05/25 02:38:12;;;;;;;7.57;7.07;;;14.40;71.20;;;;;;4946861;28;20039;-78
2022/05/25 02:40:39;;;;;;;7.65;6.95;;;14.30;71.00;;;;;;4953763;28;20034;-78
2022/05/25 02:43:06;;;;;;;7.05;6.63;;;14.30;71.10;;;;;;4951839;28;20042;-78
2022/05/25 02:45:32;;;;;;;7.45;6.95;;;14.30;71.00;;;;;;4969593;28;20027;-78
2022/05/25 02:47:58;;;;;;;7.75;7.05;;;14.20;71.10;;;;;;4954788;28;20516;-78
2022/05/25 02:50:25;;;;;;;7.85;7.18;;;14.20;71.20;;;;;;4967387;28;20042;-78
2022/05/25 02:52:51;;;;;;;7.75;6.97;;;14.20;71.30;;;;;;4999740;28;20042;-78
2022/05/25 02:55:17;;;;;;;8.00;7.32;;;14.10;71.40;;;;;;5009970;28;20034;-78
2022/05/25 02:57:43;;;;;;;7.63;6.93;;;14.20;71.30;;;;;;5009024;28;20474;-78
2022/05/25 03:00:10;;;;;;;8.52;7.10;;;14.10;71.30;;;;;;5009604;28;20036;-78
2022/05/25 03:02:36;;;;;;;8.40;6.90;;;14.10;71.50;;;;;;5028327;28;20379;-78
2022/05/25 03:05:04;;;;;;;8.38;7.53;;;14.10;71.60;;;;;;5027898;28;20083;-78
2022/05/25 03:07:31;;;;;;;7.43;6.95;;;14.00;71.70;;;;;;5029601;28;20072;-78
2022/05/25 03:09:57;;;;;;;7.57;7.07;;;14.00;71.40;;;;;;5040902;28;20061;-77
2022/05/25 03:12:23;;;;;;;7.88;7.18;;;14.00;71.30;;;;;;5031739;28;20029;-78
2022/05/25 03:14:49;;;;;;;7.57;6.97;;;13.90;71.60;;;;;;5026737;28;20033;-78
2022/05/25 03:17:15;;;;;;;7.88;7.28;;;13.90;71.60;;;;;;5009471;28;20523;-78
2022/05/25 03:19:53;;;;;;;7.85;7.07;;;13.90;71.60;;;;;;5008079;28;20030;-78
2022/05/25 03:22:19;;;;;;;8.00;7.20;;;13.90;71.70;;;;;;4992836;28;20049;-78
2022/05/25 03:24:46;;;;;;;7.57;6.93;;;13.90;71.50;;;;;;5008232;28;20049;-76
2022/05/25 03:27:12;;;;;;;8.40;7.10;;;14.00;71.70;;;;;;4992789;28;20049;-78
2022/05/25 03:29:39;;;;;;;7.43;6.82;;;13.90;71.60;;;;;;5006096;28;20042;-78
2022/05/25 03:32:05;;;;;;;7.82;7.20;;;13.90;71.70;;;;;;5023062;28;20033;-77
2022/05/25 03:34:32;;;;;;;8.10;7.40;;;13.90;71.80;;;;;;5026217;28;20048;-77
2022/05/25 03:36:58;;;;;;;7.88;7.18;;;13.90;72.70;;;;;;5027400;28;20021;-77
2022/05/25 03:39:25;;;;;;;7.90;7.30;;;13.90;71.80;;;;;;5029185;28;20037;-78
2022/05/25 03:41:53;;;;;;;8.23;7.50;;;13.90;72.50;;;;;;5030311;28;20400;-78
2022/05/25 03:44:19;;;;;;;8.27;7.68;;;13.90;72.00;;;;;;5030488;28;20407;-78
2022/05/25 03:46:45;;;;;;;7.68;7.07;;;13.90;72.30;;;;;;5011152;28;20049;-78
2022/05/25 03:49:12;;;;;;;7.57;7.03;;;13.90;72.00;;;;;;5007756;28;20496;-78
2022/05/25 03:51:38;;;;;;;8.30;7.57;;;13.90;72.00;;;;;;5009809;28;20480;-77
2022/05/25 03:54:04;;;;;;;9.48;7.80;;;13.90;72.50;;;;;;5007609;28;20038;-78
2022/05/25 03:56:30;;;;;;;7.78;6.90;;;13.90;72.10;;;;;;5006506;28;20036;-78
2022/05/25 03:58:56;;;;;;;7.07;6.57;;;13.90;72.20;;;;;;5009022;28;20029;-77
2022/05/25 04:01:22;;;;;;;8.65;7.15;;;14.00;72.20;;;;;;5019794;28;20036;-78
2022/05/25 04:03:48;;;;;;;9.13;6.68;;;14.00;72.60;;;;;;5028353;28;20034;-78
2022/05/25 04:06:14;;;;;;;6.70;6.30;;;14.00;72.10;;;;;;5028948;28;20045;-77
2022/05/25 04:08:40;;;;;;;7.40;6.80;;;13.90;71.90;;;;;;5021118;28;20030;-77
2022/05/25 04:11:06;;;;;;;7.90;7.25;;;13.90;72.20;;;;;;5019598;28;20068;-78
2022/05/25 04:13:33;;;;;;;6.85;6.45;;;13.80;72.20;;;;;;4993368;28;20045;-78
2022/05/25 04:15:59;;;;;;;6.93;6.50;;;13.80;72.00;;;;;;5026886;28;20104;-78
2022/05/25 04:18:25;;;;;;;7.78;7.03;;;13.80;72.10;;;;;;5009347;28;20049;-78
2022/05/25 04:20:51;;;;;;;7.97;7.00;;;13.80;72.30;;;;;;5042531;28;20391;-77
2022/05/25 04:23:17;;;;;;;7.88;7.28;;;13.80;72.20;;;;;;5028775;28;20029;-78
2022/05/25 04:25:43;;;;;;;7.03;6.53;;;13.70;72.30;;;;;;5026955;28;20045;-77
2022/05/25 04:28:09;;;;;;;7.38;6.70;;;13.70;72.20;;;;;;5026913;28;20045;-78
2022/05/25 04:30:35;;;;;;;7.60;7.13;;;13.60;72.40;;;;;;5027743;28;20044;-78
2022/05/25 04:33:01;;;;;;;7.35;6.70;;;13.60;72.30;;;;;;5012382;28;20045;-77
2022/05/25 04:35:28;;;;;;;6.82;6.32;;;13.60;72.60;;;;;;5026957;28;20388;-77
2022/05/25 04:37:55;;;;;;;8.20;7.50;;;13.60;72.60;;;;;;5026725;28;20043;-77
2022/05/25 04:40:27;;;;;;;7.97;7.28;;;13.60;72.80;;;;;;5026879;28;20148;-77
2022/05/25 04:42:54;;;;;;;8.07;7.30;;;13.60;72.80;;;;;;5026701;28;20419;-77
2022/05/25 04:45:21;;;;;;;8.68;7.28;;;13.60;73.60;;;;;;5028818;28;20385;-77
2022/05/25 04:47:47;;;;;;;10.88;7.40;;;13.60;72.70;;;;;;5026701;28;20058;-77
2022/05/25 04:50:14;;;;;;;8.10;7.30;;;13.60;73.10;;;;;;5026964;28;20518;-79
2022/05/25 04:52:41;;;;;;;7.60;7.03;;;13.60;73.00;;;;;;5028592;28;20044;-77
2022/05/25 04:55:08;;;;;;;7.15;6.65;;;13.60;72.90;;;;;;5026822;28;20030;-77
2022/05/25 04:57:34;;;;;;;8.25;7.40;;;13.60;73.20;;;;;;5028015;28;20029;-78
2022/05/25 05:00:02;;;;;;;7.70;7.18;;;13.60;73.20;;;;;;5029430;28;20036;-77
2022/05/25 05:02:29;;;;;;;8.00;7.10;;;13.60;73.30;;;;;;5028546;28;20045;-77
2022/05/25 05:04:55;;;;;;;8.85;7.30;;;13.60;73.20;;;;;;5029035;28;20029;-77
2022/05/25 05:07:32;;;;;;;8.13;7.50;;;13.50;73.20;;;;;;5012705;28;20044;-78
2022/05/25 05:09:59;;;;;;;7.78;7.30;;;13.50;74.10;;;;;;5013210;28;20041;-77
2022/05/25 05:12:25;;;;;;;6.90;6.30;;;13.60;74.60;;;;;;5015481;28;20048;-77
2022/05/25 05:14:51;;;;;;;7.72;7.03;;;13.70;74.70;;;;;;5029996;28;20391;-78
2022/05/25 05:17:17;;;;;;;7.50;6.97;;;13.80;74.80;;;;;;5031185;28;20040;-78
2022/05/25 05:19:43;;;;;;;7.25;6.63;;;14.00;75.50;;;;;;5029925;28;20479;-78
2022/05/25 05:22:09;;;;;;;7.60;6.75;;;14.20;75.10;;;;;;5030161;28;20030;-78
2022/05/25 05:24:36;;;;;;;7.78;7.07;;;14.40;74.80;;;;;;5032617;28;20486;-78
2022/05/25 05:27:02;;;;;;;7.55;6.95;;;14.60;74.30;;;;;;5031237;28;20463;-78
2022/05/25 05:29:30;;;;;;;7.32;6.75;;;14.80;74.40;;;;;;5031634;28;20498;-78
2022/05/25 05:31:57;;;;;;;8.00;7.20;;;14.90;73.80;;;;;;5029496;28;20088;-78
2022/05/25 05:34:27;;;;;;;7.72;7.25;;;15.00;73.60;;;;;;5031500;28;20387;-79
2022/05/25 05:37:08;;;;;;;8.02;7.30;;;15.20;73.30;;;;;;5030352;28;20042;-78
2022/05/25 05:39:36;;;;;;;7.50;7.00;;;15.40;72.30;;;;;;5011919;28;20045;-78
2022/05/25 05:42:05;;;;;;;7.78;7.18;;;15.60;71.50;;;;;;5013598;28;20036;-79
2022/05/25 05:44:36;;;;;;;7.90;7.10;;;15.80;71.30;;;;;;5012412;28;20029;-78
2022/05/25 05:47:03;;;;;;;8.32;7.72;;;15.90;70.70;;;;;;5027913;28;20060;-78
2022/05/25 05:49:29;;;;;;;8.07;7.30;;;16.00;70.30;;;;;;5012119;28;20037;-78
2022/05/25 05:51:55;;;;;;;8.38;7.78;;;16.20;70.00;;;;;;5029066;28;20482;-78
2022/05/25 05:54:21;;;;;;;8.48;7.63;;;16.30;69.70;;;;;;5015314;28;20030;-78
2022/05/25 05:56:47;;;;;;;8.60;8.07;;;16.40;68.80;;;;;;4998050;28;20034;-78
2022/05/25 05:59:13;;;;;;;9.10;8.30;;;16.50;68.50;;;;;;5031027;28;20033;-79
2022/05/25 06:01:42;;;;;;;9.00;8.20;;;16.60;68.40;;;;;;5028980;28;20040;-79
2022/05/25 06:04:09;;;;;;;8.18;7.68;;;16.70;67.90;;;;;;5011969;28;20407;-78
2022/05/25 06:06:35;;;;;;;9.40;8.65;;;16.70;67.80;;;;;;5030292;28;20048;-79
2022/05/25 06:09:01;;;;;;;9.30;8.60;;;16.80;67.60;;;;;;5030324;28;20040;-79
2022/05/25 06:11:27;;;;;;;8.50;8.00;;;16.80;67.30;;;;;;5026673;28;20045;-79
2022/05/25 06:13:53;;;;;;;9.38;8.73;;;16.90;67.70;;;;;;5029114;28;20029;-79
2022/05/25 06:21:49;;;;;;;9.32;8.73;;;17.20;67.20;;;;;;5034618;28;20498;-79
2022/05/25 06:24:15;;;;;;;9.15;8.55;;;17.30;67.00;;;;;;5030287;28;20041;-79
2022/05/25 06:26:42;;;;;;;10.10;9.40;;;17.50;66.60;;;;;;5027626;28;20025;-79
2022/05/25 06:29:09;;;;;;;9.90;9.30;;;17.60;66.50;;;;;;5028844;28;20408;-79
2022/05/25 06:31:35;;;;;;;10.05;9.35;;;17.80;66.20;;;;;;5026251;28;20030;-79
2022/05/25 06:34:01;;;;;;;10.13;9.43;;;18.00;65.70;;;;;;5028996;28;20695;-79
2022/05/25 06:36:28;;;;;;;10.00;9.30;;;18.10;64.60;;;;;;5031226;28;20038;-79
2022/05/25 06:38:55;;;;;;;10.68;9.77;;;18.30;64.00;;;;;;5027930;28;20052;-79
2022/05/25 06:41:21;;;;;;;10.88;10.07;;;18.40;63.20;;;;;;5028795;28;20077;-79
2022/05/25 06:43:47;;;;;;;10.32;9.63;;;18.50;62.70;;;;;;5028425;28;20033;-79
2022/05/25 06:46:14;;;;;;;10.85;9.93;;;18.50;63.10;;;;;;5009802;28;20041;-79
2022/05/25 06:48:40;;;;;;;11.07;10.07;;;18.50;63.30;;;;;;5030921;28;20480;-79
2022/05/25 06:51:14;;;;;;;11.32;10.43;;;18.70;63.80;;;;;;5029912;28;20028;-79
2022/05/25 06:53:40;;;;;;;22.35;12.13;;;18.80;63.30;;;;;;5029779;28;20025;-79
2022/05/25 06:56:06;;;;;;;12.82;11.50;;;19.00;62.40;;;;;;5028323;28;20128;-79
2022/05/25 06:58:33;;;;;;;11.38;10.60;;;19.10;61.70;;;;;;5007609;28;20049;-79
2022/05/25 07:00:59;;;;;;;11.32;10.63;;;19.20;61.60;;;;;;5011299;28;20044;-79
2022/05/25 07:03:25;;;;;;;11.90;11.10;;;19.30;61.30;;;;;;5032034;28;20033;-79
2022/05/25 07:05:52;;;;;;;12.25;11.23;;;19.40;61.40;;;;;;5028092;28;20334;-79
2022/05/25 07:08:18;;;;;;;12.10;11.40;;;19.50;61.10;;;;;;5024987;28;20037;-79
2022/05/25 07:10:46;;;;;;;11.80;11.10;;;19.60;60.50;;;;;;5001479;28;20319;-79
2022/05/25 07:13:13;;;;;;;13.07;11.55;;;19.80;60.50;;;;;;5027740;28;20488;-79
2022/05/25 07:15:39;;;;;;;13.10;12.30;;;19.90;59.70;;;;;;5028659;28;20041;-79
2022/05/25 07:18:05;;;;;;;12.43;11.70;;;19.90;59.40;;;;;;5011742;28;20026;-79
2022/05/25 07:20:32;;;;;;;12.00;11.10;;;20.10;58.80;;;;;;5027971;28;20360;-79
2022/05/25 07:22:58;;;;;;;12.15;11.35;;;20.20;58.50;;;;;;5027011;28;20403;-79
2022/05/25 07:25:24;;;;;;;13.57;12.77;;;20.30;58.20;;;;;;5028071;28;20029;-79
2022/05/25 07:27:50;;;;;;;13.63;12.50;;;20.50;57.00;;;;;;5011024;28;20050;-80
2022/05/25 07:30:16;;;;;;;13.82;12.93;;;20.60;57.50;;;;;;5028832;28;20052;-80
2022/05/25 07:32:43;;;;;;;14.20;13.20;;;20.70;57.50;;;;;;5029115;28;20037;-80
2022/05/25 07:35:09;;;;;;;13.80;12.60;;;20.80;56.00;;;;;;5009636;28;20388;-80
2022/05/25 07:37:38;;;;;;;13.80;13.00;;;20.80;56.10;;;;;;5029150;28;20032;-80
2022/05/25 07:40:15;;;;;;;14.35;13.30;;;20.90;56.40;;;;;;5027191;28;20055;-80
2022/05/25 07:42:43;;;;;;;15.10;14.02;;;21.10;55.40;;;;;;5028607;28;20029;-79
2022/05/25 07:45:09;;;;;;;14.32;13.23;;;21.20;55.20;;;;;;5011453;28;20040;-79
2022/05/25 07:47:35;;;;;;;14.95;13.85;;;21.30;54.40;;;;;;5026184;28;20053;-80
2022/05/25 07:50:01;;;;;;;14.85;13.95;;;21.20;54.40;;;;;;5027569;28;20025;-80
2022/05/25 07:52:29;;;;;;;14.02;13.07;;;21.10;54.30;;;;;;5006154;28;20042;-80
2022/05/25 07:54:55;;;;;;;14.70;13.90;;;20.90;55.10;;;;;;5026914;28;20459;-80
2022/05/25 07:57:21;;;;;;;14.10;13.18;;;21.10;54.80;;;;;;5012334;28;20489;-80
2022/05/25 07:59:47;;;;;;;14.18;13.27;;;21.30;54.70;;;;;;5027278;28;20475;-80
2022/05/25 08:07:53;;;;;;;13.45;12.55;;;21.50;50.80;;;;;;5031485;28;20503;-80
2022/05/25 08:10:22;;;;;;;13.98;12.98;;;21.20;52.00;;;;;;5026068;28;20377;-80
2022/05/25 08:12:48;;;;;;;13.23;12.23;;;21.20;52.50;;;;;;5026717;28;20120;-79
2022/05/25 08:15:14;;;;;;;15.35;14.00;;;21.30;53.20;;;;;;5027919;28;20022;-80
2022/05/25 08:17:40;;;;;;;14.18;13.27;;;21.50;52.30;;;;;;5008830;28;20322;-80
2022/05/25 08:20:07;;;;;;;14.82;14.02;;;21.70;52.50;;;;;;5028504;28;20044;-80
2022/05/25 08:22:33;;;;;;;14.52;13.63;;;21.80;50.70;;;;;;5027047;28;20029;-80
2022/05/25 08:24:59;;;;;;;15.00;13.80;;;21.50;49.80;;;;;;5026413;28;20079;-80
2022/05/25 08:27:25;;;;;;;14.52;13.68;;;21.40;52.00;;;;;;5030567;28;20045;-80
2022/05/25 08:29:51;;;;;;;15.02;14.00;;;21.60;52.10;;;;;;5027361;28;20049;-80
2022/05/25 08:32:17;;;;;;;14.50;13.50;;;21.90;51.70;;;;;;5026420;28;20029;-80
2022/05/25 08:34:44;;;;;;;15.07;14.15;;;22.20;51.70;;;;;;5032397;28;20041;-80
2022/05/25 08:37:10;;;;;;;14.88;13.88;;;22.50;51.80;;;;;;5030919;28;20042;-80
2022/05/25 08:39:36;;;;;;;15.43;14.48;;;22.60;49.80;;;;;;5033266;28;20502;-80
2022/05/25 08:42:05;;;;;;;15.13;14.05;;;22.70;50.20;;;;;;5032532;28;20052;-80
2022/05/25 08:44:32;;;;;;;14.88;14.07;;;22.70;49.80;;;;;;5030711;28;20037;-80
2022/05/25 08:47:00;;;;;;;15.88;14.63;;;22.70;49.70;;;;;;5031734;28;20026;-80
2022/05/25 08:49:28;;;;;;;14.63;13.73;;;22.50;49.00;;;;;;5031957;28;20048;-80
2022/05/25 08:51:55;;;;;;;15.13;14.05;;;22.50;49.40;;;;;;5031206;28;20050;-80
2022/05/25 08:54:21;;;;;;;15.30;14.32;;;22.20;48.70;;;;;;5032902;28;20033;-80
2022/05/25 08:56:50;;;;;;;15.10;14.00;;;22.10;49.80;;;;;;5013029;28;20037;-80
2022/05/25 08:59:35;;;;;;;15.02;13.98;;;22.10;49.90;;;;;;5029343;28;20033;-80
2022/05/25 09:02:28;;;;;;;15.30;14.20;;;22.20;49.70;;;;;;5029120;28;20040;-80
2022/05/25 09:05:00;;;;;;;16.02;14.93;;;22.20;49.30;;;;;;5029370;28;20026;-80
2022/05/25 09:07:48;;;;;;;14.60;13.77;;;22.20;48.80;;;;;;5031928;28;20029;-80
2022/05/25 09:10:15;;;;;;;14.65;13.85;;;22.40;48.30;;;;;;5030379;28;20046;-80
2022/05/25 09:12:56;;;;;;;14.80;13.70;;;22.40;48.20;;;;;;5031492;28;20055;-80
2022/05/25 09:15:30;;;;;;;14.82;13.90;;;22.30;48.60;;;;;;5013526;28;20040;-80
2022/05/25 09:18:07;;;;;;;14.95;14.02;;;22.10;48.50;;;;;;5013569;28;20037;-81
2022/05/25 09:20:43;;;;;;;14.88;13.98;;;22.20;48.80;;;;;;5031707;28;20029;-80
2022/05/25 09:23:09;;;;;;;14.80;14.00;;;22.30;49.40;;;;;;5031718;28;20037;-80
2022/05/25 09:25:35;;;;;;;14.20;13.27;;;22.60;49.50;;;;;;5031690;28;20038;-80
2022/05/25 09:28:07;;;;;;;14.15;13.35;;;22.80;48.40;;;;;;5013383;28;20065;-80
2022/05/25 09:30:36;;;;;;;15.05;14.02;;;22.90;47.60;;;;;;5031073;28;20401;-80
2022/05/25 09:33:08;;;;;;;15.25;14.25;;;23.00;47.70;;;;;;5015407;28;20033;-80
2022/05/25 09:35:41;;;;;;;14.30;13.32;;;23.00;46.10;;;;;;5028561;28;20041;-81
2022/05/25 09:38:27;;;;;;;16.00;14.90;;;22.90;47.20;;;;;;5012854;28;20037;-81
2022/05/25 09:40:53;;;;;;;15.43;14.52;;;22.90;46.40;;;;;;5028588;28;20030;-80
2022/05/25 09:43:24;;;;;;;14.95;14.07;;;22.80;46.80;;;;;;5030853;28;20383;-80
2022/05/25 09:45:50;;;;;;;;;;;22.80;46.90;;;;;;5028681;28;20050;-80
2022/05/25 09:48:22;;;;;;;14.77;13.55;;;22.70;46.50;;;;;;5032196;28;20371;-80
2022/05/25 09:50:51;;;;;;;14.27;13.25;;;22.40;47.20;;;;;;5027789;28;20048;-80
2022/05/25 09:53:19;;;;;;;15.32;14.32;;;22.40;47.70;;;;;;5011559;28;20484;-81
2022/05/25 09:55:50;;;;;;;14.50;13.70;;;22.40;47.30;;;;;;5010904;28;20044;-81
2022/05/25 09:58:29;;;;;;;14.55;13.60;;;22.40;45.60;;;;;;5029666;28;20045;-81
2022/05/25 10:01:02;;;;;;;13.60;12.82;;;22.50;47.50;;;;;;5012732;28;20045;-80
2022/05/25 10:03:36;;;;;;;15.30;14.23;;;22.50;46.20;;;;;;5014872;28;20025;-80
2022/05/25 10:06:16;;;;;;;15.10;14.13;;;22.50;47.10;;;;;;5028680;28;20041;-81
2022/05/25 10:08:42;;;;;;;14.02;13.13;;;22.50;45.60;;;;;;5028039;28;20033;-80
2022/05/25 10:11:10;;;;;;;15.77;14.68;;;22.50;46.50;;;;;;5027756;28;20029;-80
2022/05/25 10:13:40;;;;;;;14.75;13.98;;;22.60;44.40;;;;;;5028182;28;20033;-80
2022/05/25 10:16:24;;;;;;;15.70;14.75;;;22.60;45.00;;;;;;5028281;28;20236;-81
2022/05/25 10:18:50;;;;;;;13.60;12.90;;;22.50;44.30;;;;;;5030469;28;20049;-80
2022/05/25 10:21:36;;;;;;;13.60;12.70;;;22.50;45.20;;;;;;5015033;28;20038;-82
2022/05/25 10:24:22;;;;;;;14.40;13.50;;;22.30;45.70;;;;;;5047537;28;20041;-80
2022/05/25 10:26:51;;;;;;;15.20;13.80;;;22.30;46.30;;;;;;5030456;28;20035;-82
2022/05/25 10:38:10;;;;;;;14.05;13.35;;;22.60;47.00;;;;;;5030812;28;20040;-80
2022/05/25 10:40:36;;;;;;;15.38;14.57;;;22.80;44.90;;;;;;5030125;28;20033;-80
2022/05/25 10:43:02;;;;;;;16.08;14.90;;;23.00;45.80;;;;;;5028072;28;20404;-80
2022/05/25 10:45:39;;;;;;;15.88;14.27;;;23.10;43.50;;;;;;5030210;28;20510;-80
2022/05/25 10:48:34;;;;;;;15.45;14.65;;;23.10;43.50;;;;;;5012433;28;20041;-81
2022/05/25 10:51:03;;;;;;;14.77;13.93;;;23.00;42.90;;;;;;5030002;28;20479;-80
2022/05/25 10:56:58;;;;;;;14.30;13.60;;;22.70;43.80;;;;;;4975629;28;20039;-83
2022/05/25 10:59:40;;;;;;;14.63;13.68;;;22.60;43.50;;;;;;4943347;28;20215;-80
2022/05/25 11:02:27;;;;;;;14.88;13.90;;;22.60;41.60;;;;;;4974335;28;20042;-82
2022/05/25 11:05:11;;;;;;;14.75;14.02;;;22.50;43.00;;;;;;4989286;28;20137;-81
2022/05/25 11:07:41;;;;;;;14.88;14.15;;;22.60;43.80;;;;;;4989412;28;20096;-81
2022/05/25 11:10:19;;;;;;;14.23;13.43;;;22.60;43.70;;;;;;4959579;28;20050;-81
2022/05/25 11:13:11;;;;;;;14.35;13.55;;;22.60;43.40;;;;;;4975551;28;20600;-81
2022/05/25 11:16:02;;;;;;;14.02;13.23;;;22.60;43.20;;;;;;4986350;28;20488;-81
2022/05/25 11:18:57;;;;;;;14.32;13.52;;;22.40;43.60;;;;;;4985941;28;20465;-81
2022/05/25 11:21:41;;;;;;;13.98;13.18;;;22.40;43.40;;;;;;4970939;28;20041;-81
2022/05/25 11:24:46;;;;;;;13.73;13.02;;;22.20;44.60;;;;;;4989669;28;20053;-81
2022/05/25 11:27:34;;;;;;;13.55;12.85;;;22.10;43.80;;;;;;4972153;28;20445;-81
2022/05/25 11:30:19;;;;;;;13.73;12.93;;;22.10;44.00;;;;;;4989617;28;20042;-81
2022/05/25 11:33:25;;;;;;;14.07;13.02;;;22.10;43.60;;;;;;4974549;28;20038;-81
2022/05/25 11:35:54;;;;;;;13.65;12.85;;;22.20;44.40;;;;;;4992692;28;20053;-81
2022/05/25 11:38:54;;;;;;;14.20;13.20;;;22.20;43.70;;;;;;4988657;28;20039;-81
2022/05/25 11:41:42;;;;;;;14.20;13.50;;;22.20;43.70;;;;;;4988706;28;20030;-81
2022/05/25 11:44:33;;;;;;;15.35;14.45;;;22.40;43.90;;;;;;4986317;28;20041;-81
2022/05/25 11:47:31;;;;;;;15.18;14.27;;;22.80;43.80;;;;;;4972422;28;20030;-81
2022/05/25 11:50:19;;;;;;;15.23;14.43;;;23.10;41.90;;;;;;4971257;28;20042;-81
2022/05/25 11:52:58;;;;;;;14.90;13.85;;;23.00;43.20;;;;;;4953097;28;20043;-82
2022/05/25 11:55:40;;;;;;;15.98;15.00;;;23.10;42.10;;;;;;4969424;28;20027;-81
2022/05/25 11:58:31;;;;;;;15.13;14.25;;;23.00;42.50;;;;;;4969220;28;20034;-81
2022/05/25 12:01:13;;;;;;;14.70;13.90;;;23.00;42.30;;;;;;4952444;28;20035;-82
2022/05/25 12:04:00;;;;;;;14.82;13.82;;;23.10;42.00;;;;;;4951055;28;20159;-81
2022/05/25 12:06:45;;;;;;;13.48;12.77;;;22.80;42.10;;;;;;4966026;28;20049;-81
2022/05/25 12:09:17;;;;;;;14.32;13.27;;;22.60;42.50;;;;;;4956141;28;20055;-81
2022/05/25 12:11:50;;;;;;;15.02;13.82;;;22.30;42.70;;;;;;4951702;28;20540;-81
2022/05/25 12:14:52;;;;;;;14.32;13.35;;;22.20;42.60;;;;;;4989962;28;20484;-81
2022/05/25 12:17:49;;;;;;;14.63;13.63;;;22.40;42.20;;;;;;5005632;28;20045;-81
2022/05/25 12:20:27;;;;;;;14.15;13.15;;;22.50;41.90;;;;;;5008856;28;20022;-81
2022/05/25 12:22:53;;;;;;;14.05;13.18;;;22.50;42.40;;;;;;5008966;28;20041;-81
2022/05/25 12:25:20;;;;;;;14.20;13.25;;;22.40;43.40;;;;;;5008564;28;20022;-81
2022/05/25 12:27:48;;;;;;;14.50;13.48;;;22.20;42.80;;;;;;5007774;28;20042;-81
2022/05/25 12:30:22;;;;;;;13.55;12.75;;;22.10;42.60;;;;;;4994596;28;20480;-81
2022/05/25 12:32:48;;;;;;;14.18;13.18;;;22.20;43.70;;;;;;5009322;28;20044;-81
2022/05/25 12:35:15;;;;;;;13.70;12.93;;;22.30;44.30;;;;;;5009564;28;20048;-81
2022/05/25 12:37:44;;;;;;;14.63;13.82;;;22.40;44.10;;;;;;5025632;28;20388;-81
2022/05/25 12:40:10;;;;;;;14.77;13.95;;;22.20;43.50;;;;;;5026859;28;20397;-81
2022/05/25 12:42:42;;;;;;;14.10;13.40;;;22.10;44.20;;;;;;5028226;28;20443;-81
2022/05/25 12:48:33;;;;;;;14.00;13.00;;;22.10;45.60;;;;;;5008556;28;20041;-81
2022/05/25 12:51:10;;;;;;;14.25;13.43;;;22.20;43.20;;;;;;4995366;28;20046;-81
2022/05/25 12:53:38;;;;;;;13.80;12.90;;;22.20;44.70;;;;;;5007165;28;20411;-82
2022/05/25 12:56:15;;;;;;;14.15;13.32;;;22.30;43.60;;;;;;5008751;28;20029;-81
2022/05/25 12:58:44;;;;;;;15.23;14.43;;;22.40;44.40;;;;;;5008939;28;20468;-81
2022/05/25 13:01:26;;;;;;;14.02;13.32;;;22.60;43.40;;;;;;5006705;28;20392;-81
2022/05/25 13:03:55;;;;;;;14.02;12.90;;;22.70;44.40;;;;;;5007826;28;20030;-81
2022/05/25 13:06:33;;;;;;;14.00;13.18;;;22.90;44.30;;;;;;5010033;28;20030;-81
2022/05/25 13:09:04;;;;;;;15.20;14.20;;;23.00;43.20;;;;;;5007592;28;20050;-81
2022/05/25 13:11:39;;;;;;;15.00;14.10;;;23.10;43.00;;;;;;5005302;28;20034;-81
2022/05/25 13:14:18;;;;;;;14.77;13.88;;;23.10;43.20;;;;;;5007128;28;20030;-81
2022/05/25 13:16:51;;;;;;;15.48;14.65;;;23.00;43.40;;;;;;5020502;28;20033;-81
2022/05/25 13:19:30;;;;;;;15.90;14.77;;;22.90;44.30;;;;;;5026706;28;20471;-81
2022/05/25 13:22:02;;;;;;;15.38;14.57;;;22.90;43.80;;;;;;5014976;28;20036;-81
2022/05/25 13:24:47;;;;;;;15.77;14.77;;;22.90;45.10;;;;;;5029883;28;20033;-81
2022/05/25 13:27:16;;;;;;;15.32;14.13;;;23.00;43.40;;;;;;5032496;28;20468;-81
2022/05/25 13:30:02;;;;;;;16.15;15.18;;;22.90;44.30;;;;;;5029975;28;20400;-81